Tiempo atmosférico en la estación meteorológica de Alajar, Huelva (572 m.)



Fecha
DESCASC
Temp. máxima en grados centígrados (hora)
DESCASC
Temp. mínima en grados centígrados (hora)
DESCASC
Temp. media en grados centígrados
DESCASC
Racha de viento máxima en m/sg (hora)
DESCASC
Velocidad máxima media en intervalos de 10 minutos(hora)
DESCASC
Precipitaciones diarias en mm
DESCASC
Precipitaciones de 00:00 a 06:00 en mm
DESCASC
Precipitaciones de 06:00 a 12:00 en mm
DESCASC
Precipitaciones de 12:00 a 18:00 en mm
DESCASC
Precipitaciones de 18:00 a 24:00 en mm
DESCASC
25-04-2019 15 (16:30) 8.2 (07:30) 11.6 -- (--) -- (--) 5.8 5.6 0.2 0 0
24-04-2019 12.3 (16:40) 5.4 (01:10) 8.9 -- (--) -- (--) 38 0 13.4 17.6 7
23-04-2019 -- (--) -- (--) -- -- (--) -- (--) -- -- 0 2.2 1.4
22-04-2019 -- (--) -- (--) -- -- (--) -- (--) -- -- 0 -- --
21-04-2019 -- (--) -- (--) -- -- (--) -- (--) -- -- 0 -- --
20-04-2019 -- (--) -- (--) -- -- (--) -- (--) -- -- 0.2 0 0
19-04-2019 14.5 (18:10) 7.6 (00:00) 11 7.78 (23:10) 5.28 (22:50) 8.4 0.4 3 4.6 0.4
18-04-2019 14.2 (13:10) 7.4 (00:00) 10.8 11.94 (16:30) 6.11 (13:50) 31.2 1.4 2.8 22.8 4.2
17-04-2019 16.7 (14:40) 9.6 (00:00) 13.2 15.83 (15:00) 8.61 (15:00) 3 0 0 1.4 1.6
16-04-2019 21.9 (16:20) 8.3 (00:00) 15.1 11.67 (02:50) 7.5 (03:00) 0 0 0 0 0
15-04-2019 21.1 (14:00) 11.1 (00:00) 16.1 10.56 (18:00) 5.83 (18:00) 0 0 0 0 0
14-04-2019 24.4 (16:30) 11.8 (00:00) 18.1 8.89 (02:10) 6.39 (02:10) 0 0 0 0 0
13-04-2019 23.1 (16:30) 11.9 (00:00) 17.5 10.28 (02:40) 6.67 (03:20) 0 0 0 0 0
12-04-2019 20.2 (17:10) 9.2 (00:00) 14.7 10 (01:10) 6.67 (01:30) 0 0 0 0 0
11-04-2019 18.3 (16:30) 6.4 (00:00) 12.3 14.72 (04:30) 10.28 (05:00) 0 0 0 0 0
10-04-2019 16 (16:40) 7.3 (00:00) 11.7 12.5 (13:10) 6.94 (13:10) 0 0 0 0 0
09-04-2019 14.3 (16:30) 7.5 (00:00) 10.9 16.39 (17:20) 7.5 (17:20) 4.4 0 1.2 3 0.2
08-04-2019 15.3 (18:10) 8.3 (00:00) 11.8 10 (19:10) 6.39 (19:10) 11.8 1.2 10.4 0.2 0
07-04-2019 11.6 (20:00) 6.4 (00:00) 9 11.11 (23:40) 5 (05:30) 7.2 0.8 0 2 4.4
06-04-2019 11.7 (15:30) 5.4 (00:00) 8.5 13.06 (15:20) 6.39 (15:30) 6.4 0.2 1 4 1.2
05-04-2019 12.5 (16:40) 5.6 (00:00) 9 13.89 (18:10) 6.39 (15:10) 9 6.2 1.2 0.4 1.2
04-04-2019 16.6 (17:00) 4.7 (00:00) 10.7 18.33 (01:10) 10.83 (01:00) 0 0 0 0 0
03-04-2019 17.3 (14:00) 8.8 (00:00) 13 18.61 (23:40) 10.28 (23:50) 0 0 0 0 0
02-04-2019 19.8 (17:20) 7.4 (00:00) 13.6 7.5 (23:40) 5 (23:40) 0.2 0.2 0 0 0
01-04-2019 19.6 (15:00) 8.6 (00:00) 14.1 7.22 (16:40) 3.89 (17:00) 25 0 0 21.2 3.8
31-03-2019 17.4 (18:10) 8.8 (00:00) 13.1 7.5 (23:40) 5 (23:20) 2.4 0 0.4 2 0
30-03-2019 21.1 (15:00) 7 (00:00) 14.1 8.89 (19:40) 4.17 (20:10) 0.2 0.2 0 0 0
29-03-2019 21 (15:10) 7.9 (00:00) 14.5 10.56 (03:30) 5 (05:00) 0 0 0 0 0
28-03-2019 18.4 (16:10) 6.7 (00:00) 12.5 11.39 (14:40) 6.11 (10:00) 0 0 0 0 0
27-03-2019 20.8 (16:20) 8 (00:00) 14.4 10.56 (10:50) 5 (13:30) 0 0 0 0 0

Gráficas

Temp. máximas Temp. mínimas Temp. medias Precipitaciones Rachas de viento máximas Velocidades máximas media en intervalos de 10 minutos

Datos horarios

Fecha y hora oficial Temperatura (ºC) Velocidad del viento (km/h) Dirección del viento Racha (km/h) Dirección de racha Precipitación (mm) Presión (hPa) Tendencia (hPa) Humedad (%)
2019-04-25 23:00:00 9.1 7 Oeste 19 Noroeste 0 954.7 3 78
2019-04-25 22:00:00 9.9 7 Noroeste 22 Noroeste 0 953.5 2.2 72
2019-04-25 21:00:00 11.4 9 Noroeste 39 Noroeste 0 952.5 1.8 65
2019-04-25 20:00:00 13.2 14 Noroeste 39 Noroeste 0 951.7 1.3 56
2019-04-25 19:00:00 13.1 18 Noroeste 39 Noroeste 0 951.3 1.4 52
2019-04-25 18:00:00 14.8 18 Noroeste -- -- 0 950.7 0.8 48
2019-04-25 17:00:00 14.2 -- -- -- -- 0 950.4 0.9 50
2019-04-25 16:00:00 14.5 14 Oeste -- -- 0 949.9 0.6 68
2019-04-25 15:00:00 13 18 Noroeste -- -- 0 949.9 0.7 72
2019-04-25 14:00:00 13.2 -- -- -- -- 0 949.5 0.9 66
2019-04-25 13:00:00 13.1 18 Oeste 46 Noroeste 0 949.3 1.3 66
2019-04-25 12:00:00 11.6 17 Oeste 42 Noroeste 0 949.2 2.1 71
2019-04-25 11:00:00 10.5 17 Oeste 34 Noroeste 0 948.6 2.3 84
2019-04-25 10:00:00 9.5 16 Noroeste 29 Noroeste 0 948 2.4 89
2019-04-25 09:00:00 9 9 Oeste 27 Oeste 0.2 947.1 2 99
2019-04-25 08:00:00 8.5 13 Oeste 29 Oeste 0 946.3 1.3 100
2019-04-25 07:00:00 8.7 15 Oeste 31 Noroeste 0 945.6 0.9 98
2019-04-25 06:00:00 9 13 Oeste 28 Noroeste 0 945.1 0.1 100
2019-04-25 05:00:00 9.5 12 Oeste 31 Noroeste 0.8 945 0.1 100
2019-04-25 04:00:00 9.6 9 Noroeste 25 Noroeste 0.2 944.7 0.1 100
2019-04-25 03:00:00 9.8 13 Noroeste 29 Noroeste 0.2 945 0.9 100
2019-04-25 02:00:00 10.7 14 Noroeste 34 Noroeste 0.6 944.9 0.9 100
2019-04-25 01:00:00 11.1 15 Oeste 46 Oeste 3.8 944.6 1.1 100
2019-04-25 00:00:00 11.9 19 Sudoeste 42 Sudoeste 1.6 944.1 1.1 100
2019-04-24 23:00:00 12.1 21 Sudoeste 49 Sudoeste 0.4 944 1.1 100
2019-04-24 22:00:00 12 18 Sudoeste -- -- 0.2 943.5 0.8 100
2019-04-24 21:00:00 12.3 17 Sudoeste -- -- 0.6 943 1 100
2019-04-24 20:00:00 12.2 17 Sudoeste -- -- 0 942.9 1.1 100
2019-04-24 19:00:00 12.1 -- -- -- -- 4.2 942.7 0.8 100
2019-04-24 18:00:00 12.2 28 Sudoeste -- -- 2.8 942 -0.2 100
2019-04-24 17:00:00 12.2 30 Sudoeste -- -- 0.8 941.8 -0.2 100
2019-04-24 16:00:00 12 33 Sudoeste -- -- 3.2 941.9 -0.3 100
2019-04-24 15:00:00 11.9 19 Sudoeste -- -- 5.2 942.2 0 100
2019-04-24 14:00:00 11.4 -- -- -- -- 1.8 942 0.2 100
2019-04-24 13:00:00 11 25 Sudoeste -- -- 3.8 942.2 0.6 100
2019-04-24 12:00:00 10.4 -- -- -- -- 2 942.2 0.9 100
2019-04-24 11:00:00 9.7 19 Sudoeste 43 Sudoeste 4.2 941.8 0.9 100
2019-04-24 10:00:00 8.9 15 Sudoeste 35 Sudoeste 4.2 941.6 1.1 100
2019-04-24 09:00:00 8.4 18 Sudoeste -- -- 2.8 941.3 0.8 100
2019-04-24 08:00:00 7.8 15 Sudoeste 36 Sudoeste 0.2 940.9 0.4 100
2019-04-24 07:00:00 7.4 9 Sudoeste 26 Sur 0 940.5 -0.1 100
2019-04-24 06:00:00 7 12 Sudoeste 22 Sudoeste 0 940.5 -0.5 100
2019-04-24 05:00:00 6.6 6 Sudoeste 23 Sudoeste 0 940.5 -0.5 100
2019-04-24 04:00:00 6.4 6 Oeste 21 Sudoeste 0 940.6 -0.3 100
2019-04-24 03:00:00 6.6 8 Sudoeste 15 Oeste 0 941 0.5 100
2019-04-24 02:00:00 6.1 5 Oeste 9 Oeste 0 941 0.7 100
2019-04-24 01:00:00 5.7 6 Oeste 17 Oeste 0 940.9 1.3 99
2019-04-24 00:00:00 6.1 6 Oeste 17 Noroeste 0 940.5 1.7 99
2019-04-23 23:00:00 6.5 4 Oeste 14 Oeste 0 940.3 2 100
2019-04-23 22:00:00 6.6 3 Oeste 13 Oeste 0 939.6 1.6 100
2019-04-23 21:00:00 7.1 6 Sudoeste 33 Oeste 1.2 938.8 1.3 97
2019-04-23 20:00:00 8.4 15 Sudoeste 32 Sudoeste 0 938.3 0.7 78
2019-04-23 19:00:00 9.2 12 Noroeste -- -- 0.2 938 0.7 74
2019-04-23 18:00:00 11.7 -- -- -- -- 0 937.5 0.4 62
2019-04-23 17:00:00 9.5 -- -- -- -- 0.2 937.6 0.7 79
2019-04-23 16:00:00 10.1 -- -- -- -- 0 937.3 -0.2 65
2019-04-23 15:00:00 8.5 26 Noroeste 49 Noroeste 0 937.1 0.6 68
2019-04-23 14:00:00 10.4 16 Oeste 39 Noroeste 0.4 936.9 0.9 68
2019-04-23 13:00:00 5.5 23 Noroeste -- -- 1.6 937.5 -- 92
2019-04-23 12:00:00 9.8 12 Oeste -- -- 0 936.5 -- 73
2019-04-23 11:00:00 8.1 17 Noroeste -- -- -- 936 -- 75
2019-04-23 10:00:00 -- -- -- -- -- -- -- -- --
2019-04-23 09:00:00 -- -- -- -- -- -- -- -- --
2019-04-23 08:00:00 -- -- -- -- -- -- -- -- --
2019-04-23 07:00:00 -- -- -- -- -- -- -- -- --
2019-04-23 06:00:00 -- -- -- -- -- -- -- -- --
2019-04-23 05:00:00 -- -- -- -- -- -- -- -- --
2019-04-23 04:00:00 -- -- -- -- -- -- -- -- --
2019-04-23 03:00:00 -- -- -- -- -- -- -- -- --
2019-04-23 02:00:00 -- -- -- -- -- -- -- -- --
2019-04-23 01:00:00 -- -- -- -- -- -- -- -- --
2019-04-23 00:00:00 -- -- -- -- -- -- -- -- --
2019-04-22 23:00:00 -- -- -- -- -- -- -- -- --
2019-04-22 22:00:00 -- -- -- -- -- -- -- -- --
2019-04-22 21:00:00 -- -- -- -- -- -- -- -- --
2019-04-22 20:00:00 -- -- -- -- -- -- -- -- --
2019-04-22 19:00:00 -- -- -- -- -- -- -- -- --
2019-04-22 18:00:00 -- -- -- -- -- -- -- -- --
2019-04-22 17:00:00 -- -- -- -- -- -- -- -- --
2019-04-22 16:00:00 -- -- -- -- -- -- -- -- --
2019-04-22 15:00:00 -- -- -- -- -- -- -- -- --
2019-04-22 14:00:00 -- -- -- -- -- -- -- -- --
2019-04-22 13:00:00 -- -- -- -- -- -- -- -- --
2019-04-22 12:00:00 17.8 11 Oeste 27 Noroeste 0 939.5 0.3 55
2019-04-22 11:00:00 15.8 9 Sudoeste 15 Sudoeste 0 939.5 0.6 62
2019-04-22 10:00:00 13.5 6 Sudoeste 9 Sudoeste 0 939.4 0.8 72
2019-04-22 09:00:00 10.4 0 Calma 5 Este 0 939.2 0 81
2019-04-22 08:00:00 9.7 2 Noroeste 6 Este 0 938.9 -0.9 83
2019-04-22 07:00:00 9 0 Calma 6 Noroeste 0 938.6 -1.9 84
2019-04-22 06:00:00 9 0 Calma 7 Norte 0 939.2 -1.9 89
2019-04-22 05:00:00 9.1 2 Sudoeste 6 Noroeste 0 939.8 -- 82
2019-04-22 04:00:00 10 2 Sudoeste 6 Noroeste 0 940.5 -- 74
2019-04-22 03:00:00 10.5 3 Norte 10 Nordeste 0 941.1 -- 77
2019-04-22 02:00:00 -- -- -- -- -- -- -- -- --
2019-04-22 01:00:00 -- -- -- -- -- -- -- -- --
2019-04-22 00:00:00 -- -- -- -- -- -- -- -- --
2019-04-21 23:00:00 -- -- -- -- -- -- -- -- --
2019-04-21 22:00:00 -- -- -- -- -- -- -- -- --
2019-04-21 21:00:00 -- -- -- -- -- -- -- -- --
2019-04-21 20:00:00 -- -- -- -- -- -- -- -- --
2019-04-21 19:00:00 -- -- -- -- -- -- -- -- --
2019-04-21 18:00:00 -- -- -- -- -- -- -- -- --
2019-04-21 17:00:00 -- -- -- -- -- -- -- -- --
2019-04-21 16:00:00 -- -- -- -- -- -- -- -- --
2019-04-21 15:00:00 -- -- -- -- -- -- -- -- --
2019-04-21 14:00:00 -- -- -- -- -- -- -- -- --
2019-04-21 13:00:00 -- -- -- -- -- -- -- -- --
2019-04-21 12:00:00 -- -- -- -- -- -- -- -- --
2019-04-21 11:00:00 -- -- -- -- -- -- -- -- --
2019-04-21 10:00:00 -- -- -- -- -- -- -- -- --
2019-04-21 09:00:00 -- -- -- -- -- -- -- -- --
2019-04-21 08:00:00 -- -- -- -- -- -- -- -- --
2019-04-21 07:00:00 -- -- -- -- -- -- -- -- --
2019-04-21 06:00:00 -- -- -- -- -- -- -- -- --
2019-04-21 05:00:00 -- -- -- -- -- -- -- -- --
2019-04-21 04:00:00 -- -- -- -- -- -- -- -- --
2019-04-21 03:00:00 -- -- -- -- -- -- -- -- --
2019-04-21 02:00:00 -- -- -- -- -- -- -- -- --
2019-04-21 01:00:00 -- -- -- -- -- -- -- -- --
2019-04-21 00:00:00 -- -- -- -- -- -- -- -- --
2019-04-20 23:00:00 -- -- -- -- -- -- -- -- --
2019-04-20 22:00:00 -- -- -- -- -- -- -- -- --
2019-04-20 21:00:00 -- -- -- -- -- -- -- -- --
2019-04-20 20:00:00 -- -- -- -- -- -- -- -- --
2019-04-20 19:00:00 -- -- -- -- -- -- -- -- --
2019-04-20 18:00:00 -- -- -- -- -- -- -- -- --
2019-04-20 17:00:00 -- -- -- -- -- -- -- -- --
2019-04-20 16:00:00 -- -- -- -- -- -- -- -- --
2019-04-20 15:00:00 -- -- -- -- -- -- -- -- --
2019-04-20 14:00:00 -- -- -- -- -- -- -- -- --
2019-04-20 13:00:00 -- -- -- -- -- -- -- -- --
2019-04-20 12:00:00 -- -- -- -- -- -- -- -- --
2019-04-20 11:00:00 -- -- -- -- -- -- -- -- --
2019-04-20 10:00:00 -- -- -- -- -- -- -- -- --
2019-04-20 09:00:00 -- -- -- -- -- -- -- -- --
2019-04-20 08:00:00 -- -- -- -- -- -- -- -- --
2019-04-20 07:00:00 -- -- -- -- -- -- -- -- --
2019-04-20 06:00:00 -- -- -- -- -- -- -- -- --
2019-04-20 05:00:00 -- -- -- -- -- -- -- -- --
2019-04-20 04:00:00 -- -- -- -- -- -- -- -- --
2019-04-20 03:00:00 -- -- -- -- -- -- -- -- --
2019-04-20 02:00:00 -- -- -- -- -- -- -- -- --
2019-04-20 01:00:00 -- -- -- -- -- -- -- -- --
2019-04-20 00:00:00 9.9 6 Nordeste 28 Norte 0 949.2 1.2 91
2019-04-19 23:00:00 10.3 17 Norte 28 Nordeste 0.4 949.2 1.4 95
2019-04-19 22:00:00 11.4 7 Este 21 Nordeste 0 949 1.6 88
2019-04-19 21:00:00 11.8 14 Nordeste 24 Nordeste 0 948 0.8 88
2019-04-19 20:00:00 12.7 9 Nordeste 26 Nordeste 0 947.8 0.5 80
2019-04-19 19:00:00 13.5 15 Norte 25 Nordeste 0 947.4 -0.4 72
2019-04-19 18:00:00 13.9 7 Norte 21 Noroeste 0 947.2 -0.8 77
2019-04-19 17:00:00 11.4 14 Norte -- -- 0.2 947.3 -0.5 86
2019-04-19 16:00:00 11.7 6 Sudoeste 24 Norte 1.6 947.8 -0.3 99
2019-04-19 15:00:00 10.6 3 Este 17 Oeste 2.8 948 -0.3 100
2019-04-19 14:00:00 12.8 12 Oeste 20 Sudoeste 0 947.8 -0.1 84
2019-04-19 13:00:00 14.4 7 Sur 14 Sur 0 948.1 0.7 75
2019-04-19 12:00:00 11.3 3 Sur 21 Nordeste 0.2 948.3 0.7 99
2019-04-19 11:00:00 10.3 15 Norte 24 Norte 0.2 947.9 0.8 93
2019-04-19 10:00:00 9.9 9 Noroeste 22 Nordeste 1 947.4 0.6 95
2019-04-19 09:00:00 8.8 13 Norte 21 Norte 0.6 947.6 0.9 100
2019-04-19 08:00:00 8.5 5 Norte 15 Noroeste 0.4 947.1 0.2 100
2019-04-19 07:00:00 8.5 2 Noroeste 19 Norte 0.6 946.8 -0.3 98
2019-04-19 06:00:00 9 11 Norte 26 Norte 0.4 946.7 -0.6 100
2019-04-19 05:00:00 8.1 4 Oeste 8 Noroeste 0 946.9 -0.5 100
2019-04-19 04:00:00 7.8 2 Oeste 21 Norte 0 947.1 -0.5 100
2019-04-19 03:00:00 7.9 3 Sudoeste 15 Noroeste 0 947.3 -0.5 100
2019-04-19 02:00:00 8.8 6 Noroeste 20 Norte 0 947.4 -0.5 96
2019-04-19 01:00:00 9.1 11 Noroeste 23 Norte 0 947.6 0.2 95
2019-04-19 00:00:00 9 17 Norte 27 Noroeste 0 947.8 0.9 93
2019-04-18 23:00:00 8.6 15 Norte 24 Norte 0 947.9 0.9 97
2019-04-18 22:00:00 7.6 3 Oeste 7 Noroeste 0 947.4 0.5 100
2019-04-18 21:00:00 8.4 4 Nordeste 14 Oeste 0 946.9 0.1 100
2019-04-18 20:00:00 8.9 5 Noroeste 20 Norte 0.6 947 0.6 100
2019-04-18 19:00:00 8.6 4 Norte 12 Nordeste 3.6 946.9 0.8 100
2019-04-18 18:00:00 8.2 5 Este 13 Noroeste 2.8 946.8 0.9 100
2019-04-18 17:00:00 7.8 6 Noroeste 43 Noroeste 17 946.4 0.3 100
2019-04-18 16:00:00 12.1 12 Sur 20 Sur 0.2 946.1 -0.3 88
2019-04-18 15:00:00 11.3 3 Nordeste 13 Norte 0 945.9 -0.8 100
2019-04-18 14:00:00 8.8 16 Norte 34 Norte 2.8 946.1 -0.6 99
2019-04-18 13:00:00 13.7 10 Sudoeste 19 Sudoeste 0 946.4 -0.1 76
2019-04-18 12:00:00 13.2 9 Sur 15 Sudoeste 0 946.7 0.3 86
2019-04-18 11:00:00 10.3 3 Sudoeste 8 Nordeste 0 946.7 0.7 99
2019-04-18 10:00:00 9.1 5 Nordeste 12 Sur 0 946.5 1.1 100
2019-04-18 09:00:00 8.6 5 Este 13 Norte 1 946.4 0.9 100
2019-04-18 08:00:00 9.1 12 Norte 23 Norte 1.4 946 0.3 88
2019-04-18 07:00:00 9.9 2 Sudeste 10 Sur 0.4 945.4 -0.5 100
2019-04-18 06:00:00 10 4 Sur 8 Sur 0.2 945.5 -1 100
2019-04-18 05:00:00 9.8 4 Nordeste 7 Este 1.2 945.7 -1.3 100
2019-04-18 04:00:00 9.9 3 Sur 10 Sudoeste 0 945.9 -1.2 100
2019-04-18 03:00:00 9.8 4 Sur 8 Sur 0 946.5 -0.4 100
2019-04-18 02:00:00 9.9 2 Sur 10 Sudoeste 0 947 0.3 100
2019-04-18 01:00:00 9.9 6 Sudoeste 10 Sudoeste 0 947.1 1.1 100
2019-04-18 00:00:00 9.7 5 Sur 17 Sur 0.2 946.9 1.5 100
2019-04-17 23:00:00 9.6 11 Oeste 21 Oeste 0 946.7 1.9 100
2019-04-17 22:00:00 10.1 9 Sudoeste 18 Sudoeste 0 946 1.1 100
2019-04-17 21:00:00 10.4 7 Sudoeste 19 Sur 0.6 945.4 0.8 100
2019-04-17 20:00:00 10.8 8 Sudeste 16 Sur 0.8 944.8 0 100
2019-04-17 19:00:00 11.1 10 Sudoeste 17 Sur 0 944.9 0.8 100
2019-04-17 18:00:00 11 6 Sudoeste 30 Sudoeste 0.4 944.6 0.7 100
2019-04-17 17:00:00 11.1 22 Sudoeste 46 Sudoeste 1 944.8 0.7 100
2019-04-17 16:00:00 14.6 28 Sudoeste 50 Sudoeste 0 944.1 -0.2 79
2019-04-17 15:00:00 15.7 31 Sur 57 Sudoeste 0 943.9 -0.8 68
2019-04-17 14:00:00 15.9 29 Sudoeste 49 Sur 0 944.1 -0.5 67
2019-04-17 13:00:00 15.4 16 Sudoeste 53 Sur 0 944.3 0 70
2019-04-17 12:00:00 14.1 20 Sudoeste 49 Sudoeste 0 944.7 0.3 78
2019-04-17 11:00:00 13.3 19 Sudoeste 35 Sudoeste 0 944.6 0.4 77
2019-04-17 10:00:00 12.8 12 Sudoeste 24 Sur 0 944.3 0.7 77
2019-04-17 09:00:00 11.4 8 Sudoeste 16 Sur 0 944.4 0.3 87
2019-04-17 08:00:00 10.8 5 Sur 15 Sudeste 0 944.2 -0.4 87
2019-04-17 07:00:00 10.6 6 Sudeste 14 Sudeste 0 943.6 -1.6 84
2019-04-17 06:00:00 10.9 6 Sur 20 Sur 0 944.1 -1.7 81
2019-04-17 05:00:00 10.6 7 Sudeste 17 Sudeste 0 944.6 -1.9 78
2019-04-17 04:00:00 11.4 6 Sudeste 19 Sudeste 0 945.2 -1.5 72
2019-04-17 03:00:00 10.6 5 Este 9 Sudeste 0 945.8 -1.2 75
2019-04-17 02:00:00 11.7 2 Este 13 Sudoeste 0 946.5 -0.6 66
2019-04-17 01:00:00 12.3 4 Sudoeste 16 Sudoeste 0 946.7 0.1 63
2019-04-17 00:00:00 13.6 6 Sur 15 Sudoeste 0 947 0.7 63
2019-04-16 23:00:00 14.8 7 Sudoeste 14 Sudoeste 0 947.1 0.6 56
2019-04-16 22:00:00 15.9 11 Sudoeste 22 Sur 0 946.6 0 57
2019-04-16 21:00:00 18.1 11 Sur 32 Sur 0 946.3 -0.7 37
2019-04-16 20:00:00 19.3 15 Sur 31 Sur 0 946.5 -1.1 37
2019-04-16 19:00:00 20.4 19 Sur 34 Sur 0 946.6 -1.8 33
2019-04-16 18:00:00 21.4 11 Sudoeste 32 Sudeste 0 947 -2.3 33
2019-04-16 17:00:00 21.5 14 Sur 29 Sur 0 947.6 -2.4 36
2019-04-16 16:00:00 21.6 14 Sur 29 Sur 0 948.4 -2.4 33
2019-04-16 15:00:00 20.8 14 Sur 30 Sur 0 949.3 -1.8 34
2019-04-16 14:00:00 19.9 11 Sur 27 Sur 0 950 -1.2 42
2019-04-16 13:00:00 18.6 11 Sur 28 Sur 0 950.8 -0.7 48
2019-04-16 12:00:00 17 11 Sur 24 Sur 0 951.1 0 56
2019-04-16 11:00:00 15.4 13 Sur 23 Sur 0 951.2 0.4 63
2019-04-16 10:00:00 14.2 9 Sudeste 18 Sur 0 951.5 0.7 68
2019-04-16 09:00:00 10.2 4 Este 10 Este 0 951.1 0 84
2019-04-16 08:00:00 8.3 6 Este 12 Nordeste 0 950.8 -0.5 91
2019-04-16 07:00:00 8.5 4 Norte 10 Este 0 950.8 -0.6 88
2019-04-16 06:00:00 9.3 7 Nordeste 10 Nordeste 0 951.1 -0.6 93
2019-04-16 05:00:00 9 4 Norte 14 Nordeste 0 951.3 -0.8 95
2019-04-16 04:00:00 9.8 14 Norte 38 Nordeste 0 951.4 -0.4 96
2019-04-16 03:00:00 10.6 27 Norte 42 Norte 0 951.7 -0.1 95
2019-04-16 02:00:00 11.2 22 Norte 37 Noroeste 0 952.1 0.4 90
2019-04-16 01:00:00 11.4 21 Norte 36 Norte 0 951.8 0.8 83
2019-04-16 00:00:00 11.4 7 Noroeste 15 Noroeste 0 951.8 1.6 76
2019-04-15 23:00:00 12.2 12 Noroeste 22 Noroeste 0 951.7 2.1 72
2019-04-15 22:00:00 13.4 14 Noroeste 24 Noroeste 0 951 1.6 68
2019-04-15 21:00:00 14.7 13 Noroeste 27 Noroeste 0 950.2 1.4 62
2019-04-15 20:00:00 16.9 14 Noroeste 33 Noroeste 0 949.6 1 49
2019-04-15 19:00:00 16.7 15 Noroeste 35 Noroeste 0 949.4 1.1 58
2019-04-15 18:00:00 17.7 21 Noroeste 38 Noroeste 0 948.8 0.7 59
2019-04-15 17:00:00 18.4 17 Noroeste 32 Noroeste 0 948.6 0.5 59
2019-04-15 16:00:00 19.2 16 Noroeste 35 Norte 0 948.3 0.3 50
2019-04-15 15:00:00 20 12 Norte 35 Norte 0 948.1 0.3 46
2019-04-15 14:00:00 21 14 Oeste 32 Oeste 0 948.1 0.6 40
2019-04-15 13:00:00 20.3 11 Oeste 32 Noroeste 0 948 0.4 43
2019-04-15 12:00:00 18.8 11 Noroeste 21 Oeste 0 947.8 0.3 57
2019-04-15 11:00:00 18.2 10 Oeste 23 Sudoeste 0 947.5 0.7 53
2019-04-15 10:00:00 16.5 8 Oeste 18 Oeste 0 947.6 1.1 60
2019-04-15 09:00:00 14.2 10 Sudoeste 19 Sudoeste 0 947.5 1.4 65
2019-04-15 08:00:00 14.2 8 Sudoeste 11 Sudoeste 0 946.8 0.1 66
2019-04-15 07:00:00 13.8 4 Oeste 15 Sudeste 0 946.5 -0.8 75
2019-04-15 06:00:00 13.7 9 Este 12 Sur 0 946.1 -1.8 78
2019-04-15 05:00:00 14.4 5 Este 11 Este 0 946.7 -2.1 75
2019-04-15 04:00:00 15.1 7 Nordeste 13 Este 0 947.3 -2 72
2019-04-15 03:00:00 15.3 7 Este 12 Nordeste 0 947.9 -1.5 71
2019-04-15 02:00:00 14.5 4 Nordeste 14 Este 0 948.8 -1 74
2019-04-15 01:00:00 14.5 4 Norte 10 Nordeste 0 949.3 -0.4 73
2019-04-15 00:00:00 15.8 7 Nordeste 10 Este 0 949.4 -0.1 66
2019-04-14 23:00:00 16.7 6 Nordeste 9 Nordeste 0 949.8 0.4 64
2019-04-14 22:00:00 18 4 Noroeste 14 Oeste 0 949.7 0.3 64
2019-04-14 21:00:00 19.7 9 Oeste 23 Oeste 0 949.5 -0.2 58
2019-04-14 20:00:00 21.6 7 Sudoeste 18 Sur 0 949.4 -0.7 49
2019-04-14 19:00:00 23.2 10 Sudoeste 22 Sudoeste 0 949.4 -1.5 44
2019-04-14 18:00:00 23.7 13 Sudoeste 23 Sudoeste 0 949.7 -1.7 43
2019-04-14 17:00:00 23.5 10 Sudoeste 24 Sudoeste 0 950.1 -1.5 44
2019-04-14 16:00:00 23.8 9 Sur 26 Sudoeste 0 950.9 -1.3 47
2019-04-14 15:00:00 22.9 11 Sudoeste 25 Sur 0 951.4 -1.2 47
2019-04-14 14:00:00 22.6 13 Sur 23 Sudoeste 0 951.6 -0.9 50
2019-04-14 13:00:00 21.6 12 Sudoeste 19 Sudoeste 0 952.2 -0.2 55
2019-04-14 12:00:00 19.8 8 Sudoeste 16 Sudoeste 0 952.6 0.6 62
2019-04-14 11:00:00 18 7 Sur 13 Sur 0 952.5 0.8 66
2019-04-14 10:00:00 16.1 6 Sudoeste 10 Sudoeste 0 952.4 0.8 75
2019-04-14 09:00:00 13 4 Oeste 12 Oeste 0 952 0.3 95
2019-04-14 08:00:00 12 3 Sur 20 Noroeste 0 951.7 -0.4 96
2019-04-14 07:00:00 12.2 12 Norte 28 Nordeste 0 951.6 -1.1 95
2019-04-14 06:00:00 12.2 14 Norte 28 Norte 0 951.7 -1.3 93
2019-04-14 05:00:00 12.6 17 Norte 27 Norte 0 952.1 -1.2 88
2019-04-14 04:00:00 12.6 8 Norte 22 Norte 0 952.7 -0.9 95
2019-04-14 03:00:00 13 8 Sudoeste 32 Nordeste 0 953 -1 90
2019-04-14 02:00:00 13.6 19 Norte 31 Norte 0 953.3 -0.5 85
2019-04-14 01:00:00 13.9 16 Norte 22 Norte 0 953.6 0.3 81
2019-04-14 00:00:00 14 8 Noroeste 18 Norte 0 954 1.1 74
2019-04-13 23:00:00 15.3 8 Noroeste 18 Oeste 0 953.8 1.4 58
2019-04-13 22:00:00 15.4 13 Norte 21 Noroeste 0 953.3 1.1 46
2019-04-13 21:00:00 17.4 15 Noroeste 24 Noroeste 0 952.9 0.9 39
2019-04-13 20:00:00 19.9 11 Noroeste 28 Noroeste 0 952.4 0.3 35
2019-04-13 19:00:00 21.5 12 Noroeste 27 Noroeste 0 952.2 -0.2 33
2019-04-13 18:00:00 22.4 11 Oeste 28 Oeste 0 952 -0.8 34
2019-04-13 17:00:00 22.1 8 Oeste 26 Oeste 0 952.1 -0.9 37
2019-04-13 16:00:00 22.7 13 Sudoeste 27 Sudoeste 0 952.4 -0.9 35
2019-04-13 15:00:00 20.9 9 Sudoeste 27 Sudoeste 0 952.8 -0.8 34
2019-04-13 14:00:00 20.2 8 Noroeste 17 Noroeste 0 953 -0.5 35
2019-04-13 13:00:00 20.3 6 Sudoeste 17 Oeste 0 953.3 0.1 33
2019-04-13 12:00:00 18.1 9 Norte 22 Noroeste 0 953.6 0.6 36
2019-04-13 11:00:00 17.7 10 Nordeste 21 Nordeste 0 953.5 1.1 41
2019-04-13 10:00:00 14.7 15 Norte 28 Nordeste 0 953.2 1.2 56
2019-04-13 09:00:00 13.5 21 Norte 29 Norte 0 953 1 59
2019-04-13 08:00:00 12.5 19 Norte 29 Nordeste 0 952.4 0.8 62
2019-04-13 07:00:00 12.1 17 Norte 30 Nordeste 0 952 0.1 66
2019-04-13 06:00:00 12.4 18 Norte 30 Norte 0 952 -0.3 66
2019-04-13 05:00:00 12.1 14 Norte 33 Norte 0 951.6 -0.8 65
2019-04-13 04:00:00 12.2 18 Norte 32 Norte 0 951.9 -0.4 62
2019-04-13 03:00:00 12.7 23 Norte 37 Norte 0 952.3 0.1 59
2019-04-13 02:00:00 13.1 17 Norte 26 Norte 0 952.4 0.4 43
2019-04-13 01:00:00 13.3 21 Norte 29 Norte 0 952.3 0.9 42
2019-04-13 00:00:00 13.5 18 Norte 28 Nordeste 0 952.2 1.4 42
2019-04-12 23:00:00 13.9 16 Norte 27 Norte 0 952 1.3 41
2019-04-12 22:00:00 13.9 16 Norte 24 Norte 0 951.4 0.7 40
2019-04-12 21:00:00 15 13 Norte 27 Noroeste 0 950.8 0.1 36
2019-04-12 20:00:00 17.2 16 Noroeste 27 Noroeste 0 950.7 -0.1 33
2019-04-12 19:00:00 19.1 10 Noroeste 24 Noroeste 0 950.7 -0.5 30
2019-04-12 18:00:00 19.1 12 Norte 28 Norte 0 950.7 -1 30
2019-04-12 17:00:00 20 10 Noroeste 28 Norte 0 950.8 -1.4 31
2019-04-12 16:00:00 19.4 9 Norte 26 Norte 0 951.2 -1.3 31
2019-04-12 15:00:00 19.3 12 Oeste 31 Noroeste 0 951.7 -0.8 31
2019-04-12 14:00:00 18.1 7 Sudoeste 28 Norte 0 952.2 0.1 32
2019-04-12 13:00:00 16.9 13 Norte 28 Noroeste 0 952.5 0.6 33
2019-04-12 12:00:00 15.9 14 Norte 24 Norte 0 952.5 0.7 36
2019-04-12 11:00:00 17 4 Nordeste 16 Norte 0 952.1 0.6 37
2019-04-12 10:00:00 14.9 6 Norte 18 Norte 0 951.9 0.6 41
2019-04-12 09:00:00 11.3 12 Norte 19 Norte 0 951.8 0.6 50
2019-04-12 08:00:00 9.7 10 Norte 15 Nordeste 0 951.5 0.2 54
2019-04-12 07:00:00 9.7 10 Nordeste 15 Nordeste 0 951.3 -0.2 56
2019-04-12 06:00:00 9.5 9 Nordeste 22 Norte 0 951.2 -0.5 64
2019-04-12 05:00:00 10.3 14 Norte 22 Nordeste 0 951.3 -0.7 63
2019-04-12 04:00:00 10.1 15 Norte 23 Norte 0 951.5 -0.9 66
2019-04-12 03:00:00 10.3 17 Norte 30 Norte 0 951.7 -0.7 72
2019-04-12 02:00:00 10.6 22 Norte 36 Norte 0 952 -0.3 68
2019-04-12 01:00:00 11.2 16 Norte 24 Norte 0 952.4 0.6 62
2019-04-12 00:00:00 11.4 15 Norte 22 Noroeste 0 952.4 1 61
2019-04-11 23:00:00 11.4 13 Norte 18 Norte 0 952.3 1.2 60
2019-04-11 22:00:00 11.9 8 Norte 15 Norte 0 951.8 0.7 57
2019-04-11 21:00:00 13.7 5 Noroeste 19 Noroeste 0 951.4 0.4 47
2019-04-11 20:00:00 15.6 7 Norte 27 Noroeste 0 951.1 0.1 42
2019-04-11 19:00:00 16.1 19 Noroeste 33 Noroeste 0 951.1 -0.3 38
2019-04-11 18:00:00 17 12 Noroeste 31 Norte 0 951 -0.8 42
2019-04-11 17:00:00 17.2 17 Norte 29 Nordeste 0 951 -1.2 40
2019-04-11 16:00:00 17.4 15 Noroeste 29 Noroeste 0 951.4 -1.1 46
2019-04-11 15:00:00 17 12 Norte 26 Norte 0 951.8 -0.7 49
2019-04-11 14:00:00 16.4 11 Nordeste 28 Noroeste 0 952.2 0.2 52
2019-04-11 13:00:00 14.9 13 Nordeste 29 Norte 0 952.5 0.6 51
2019-04-11 12:00:00 15 7 Norte 27 Noroeste 0 952.5 0.8 51
2019-04-11 11:00:00 12.4 12 Norte 28 Norte 0 952 0.8 63
2019-04-11 10:00:00 9.9 17 Nordeste 36 Nordeste 0 951.9 1 77
2019-04-11 09:00:00 7.7 21 Nordeste 35 Nordeste 0 951.7 0.8 89
2019-04-11 08:00:00 6.5 23 Nordeste 37 Norte 0 951.2 0.2 97
2019-04-11 07:00:00 6.5 23 Norte 41 Norte 0 950.9 -0.1 99
2019-04-11 06:00:00 6.8 33 Norte 48 Norte 0 950.9 -0.3 97
2019-04-11 05:00:00 7 37 Norte 53 Nordeste 0 951 -0.9 98
2019-04-11 04:00:00 7.5 35 Norte 51 Nordeste 0 951 -0.7 93
2019-04-11 03:00:00 7.9 33 Norte 46 Nordeste 0 951.2 -0.8 89
2019-04-11 02:00:00 8.4 20 Norte 40 Norte 0 951.9 0 85
2019-04-11 01:00:00 9.5 30 Norte 49 Norte 0 951.7 0.3 76
2019-04-11 00:00:00 10.1 17 Norte 31 Norte 0 952 1.5 67
2019-04-10 23:00:00 10.7 12 Norte 27 Norte 0 951.9 1.6 63
2019-04-10 22:00:00 11.1 6 Noroeste 18 Noroeste 0 951.4 1.4 60
2019-04-10 21:00:00 11.8 6 Noroeste 22 Norte 0 950.5 0.4 57
2019-04-10 20:00:00 13.3 12 Noroeste 34 Noroeste 0 950.3 0.1 52
2019-04-10 19:00:00 14.4 10 Norte 39 Norte 0 950 -0.7 49
2019-04-10 18:00:00 14.7 19 Norte 42 Noroeste 0 950.1 -0.8 45
2019-04-10 17:00:00 15.4 18 Noroeste 45 Noroeste 0 950.2 -1 44
2019-04-10 16:00:00 15.3 17 Norte 43 Norte 0 950.7 -1 51
2019-04-10 15:00:00 14.4 20 Norte 44 Norte 0 950.9 -0.7 46
2019-04-10 14:00:00 13.4 17 Norte 45 Noroeste 0 951.2 -0.4 56
2019-04-10 13:00:00 12.2 19 Norte 42 Nordeste 0 951.7 0.5 64
2019-04-10 12:00:00 10.8 18 Norte 42 Noroeste 0 951.6 0.5 67
2019-04-10 11:00:00 10 9 Norte 44 Noroeste 0 951.6 1 76
2019-04-10 10:00:00 7.7 22 Norte 39 Noroeste 0 951.2 0.5 85
2019-04-10 09:00:00 7.4 17 Norte 38 Norte 0 951.1 0.5 91
2019-04-10 08:00:00 7.5 15 Norte 37 Norte 0 950.6 -0.4 90
2019-04-10 07:00:00 7.5 16 Norte 34 Noroeste 0 950.7 -0.6 91
2019-04-10 06:00:00 7.7 11 Norte 32 Nordeste 0 950.6 -0.9 90
2019-04-10 05:00:00 7.7 14 Norte 33 Norte 0 951 -0.6 90
2019-04-10 04:00:00 8.1 9 Noroeste 28 Noroeste 0 951.3 -0.3 91
2019-04-10 03:00:00 8 15 Norte 37 Norte 0 951.5 -0.2 89
2019-04-10 02:00:00 8.1 18 Norte 42 Norte 0 951.6 0.1 90
2019-04-10 01:00:00 8.5 12 Norte 28 Norte 0 951.6 0.7 89
2019-04-10 00:00:00 9.1 14 Norte 33 Noroeste 0 951.7 1.4 84
2019-04-09 23:00:00 9.6 13 Noroeste 28 Noroeste 0 951.5 1.4 95
2019-04-09 22:00:00 9.7 14 Noroeste 30 Noroeste 0 950.9 0.8 89
2019-04-09 21:00:00 10 12 Noroeste 33 Noroeste 0 950.3 0.3 79
2019-04-09 20:00:00 11.9 13 Noroeste 34 Noroeste 0.2 950.1 0 71
2019-04-09 19:00:00 11.9 13 Norte 40 Noroeste 0 950.1 -0.4 72
2019-04-09 18:00:00 13 17 Noroeste 59 Noroeste 0.4 950 -0.6 69
2019-04-09 17:00:00 13.9 18 Noroeste 44 Noroeste 0 950.1 -0.7 64
2019-04-09 16:00:00 13.3 19 Noroeste 39 Noroeste 0.2 950.5 -1 66
2019-04-09 15:00:00 11.5 14 Norte 35 Noroeste 0.2 950.6 -0.8 86
2019-04-09 14:00:00 12.8 18 Noroeste 38 Noroeste 0 950.8 -0.4 69
2019-04-09 13:00:00 10.3 12 Oeste 32 Noroeste 2.2 951.5 0.5 95
2019-04-09 12:00:00 11.1 18 Noroeste 37 Oeste 0 951.4 0.5 69
2019-04-09 11:00:00 11 17 Noroeste 36 Oeste 0 951.2 0.8 77
2019-04-09 10:00:00 9.2 17 Noroeste 37 Noroeste 0 951 0.7 87
2019-04-09 09:00:00 7.6 13 Noroeste 31 Noroeste 0.6 950.9 0.6 99
2019-04-09 08:00:00 8.1 10 Oeste 30 Oeste 0.6 950.4 0.1 100
2019-04-09 07:00:00 8.1 8 Oeste 18 Oeste 0 950.3 -0.2 99
2019-04-09 06:00:00 7.9 10 Oeste 24 Oeste 0 950.3 -0.5 94
2019-04-09 05:00:00 8.4 12 Oeste 23 Noroeste 0 950.3 -0.5 95
2019-04-09 04:00:00 8.3 12 Oeste 25 Noroeste 0 950.5 -0.1 93
2019-04-09 03:00:00 7.9 9 Oeste 27 Oeste 0 950.8 0.1 95
2019-04-09 02:00:00 7.5 8 Noroeste 16 Oeste 0 950.8 0.4 95
2019-04-09 01:00:00 7.9 8 Noroeste 23 Noroeste 0 950.6 0.7 89
2019-04-09 00:00:00 8.4 6 Noroeste 23 Noroeste 0 950.7 1.5 85
2019-04-08 23:00:00 9.4 14 Noroeste 28 Noroeste 0 950.4 1.6 80
2019-04-08 22:00:00 9.9 10 Noroeste 30 Noroeste 0 949.9 1.6 75
2019-04-08 21:00:00 10.9 13 Noroeste 29 Noroeste 0 949.2 1 67
2019-04-08 20:00:00 12.4 12 Noroeste 36 Noroeste 0 948.8 0.4 57
2019-04-08 19:00:00 14.9 17 Noroeste 36 Oeste 0 948.3 -0.8 49
2019-04-08 18:00:00 14.7 14 Oeste 33 Oeste 0 948.2 -0.8 63
2019-04-08 17:00:00 13.9 14 Oeste 32 Oeste 0 948.4 -0.9 73
2019-04-08 16:00:00 11.8 17 Oeste 33 Oeste 0.2 949.1 -0.4 85
2019-04-08 15:00:00 14.4 10 Oeste 29 Oeste 0 949 -0.6 72
2019-04-08 14:00:00 13.7 12 Oeste 27 Noroeste 0 949.3 0.3 67
2019-04-08 13:00:00 13.9 7 Noroeste 24 Norte 0 949.5 0.7 73
2019-04-08 12:00:00 11.9 10 Norte 26 Norte 0 949.6 0.8 98
2019-04-08 11:00:00 10.8 13 Norte 31 Norte 1.6 949 0.6 97
2019-04-08 10:00:00 10.8 8 Sudoeste 22 Oeste 0.4 948.8 0.4 100
2019-04-08 09:00:00 10.6 12 Sudoeste 31 Oeste 5 948.8 0.2 100
2019-04-08 08:00:00 10.3 8 Sudoeste 21 Oeste 2.2 948.4 -0.4 100
2019-04-08 07:00:00 10.2 8 Oeste 22 Sudoeste 1.2 948.4 -0.6 100
2019-04-08 06:00:00 10 13 Oeste 27 Oeste 0.8 948.6 -0.6 100
2019-04-08 05:00:00 10.1 12 Oeste 27 Sudoeste 0.2 948.8 -0.7 100
2019-04-08 04:00:00 10.1 9 Oeste 24 Oeste 0 949 -0.6 100
2019-04-08 03:00:00 10.2 15 Oeste 30 Noroeste 0 949.2 -0.5 100
2019-04-08 02:00:00 10.4 12 Oeste 25 Noroeste 0 949.5 0 100
2019-04-08 01:00:00 10.7 14 Oeste 27 Oeste 0.2 949.6 0.5 100
2019-04-08 00:00:00 10.9 14 Oeste 40 Noroeste 1.4 949.7 1 100
2019-04-07 23:00:00 11 5 Oeste 14 Oeste 0.2 949.5 1.2 100
2019-04-07 22:00:00 10.7 5 Oeste 19 Noroeste 0 949.1 1.4 100
2019-04-07 21:00:00 11.3 11 Noroeste 29 Noroeste 0 948.7 1 100
2019-04-07 20:00:00 11.6 13 Noroeste 30 Oeste 1 948.3 0.6 100
2019-04-07 19:00:00 11.5 3 Noroeste 5 Norte 1.8 947.7 -0.7 100
2019-04-07 18:00:00 11.1 2 Oeste 9 Sur 0.6 947.7 -0.8 100
2019-04-07 17:00:00 10.4 5 Sudoeste 14 Sudoeste 0.2 947.7 -1 100
2019-04-07 16:00:00 9.9 6 Sudoeste 21 Sudoeste 0 948.4 -0.2 100
2019-04-07 15:00:00 9.9 12 Sudoeste 20 Sudoeste 0.4 948.5 0.2 100
2019-04-07 14:00:00 9.5 12 Sudoeste 19 Sudoeste 0.6 948.7 1.1 100
2019-04-07 13:00:00 9.4 10 Sudoeste 26 Sudoeste 0.2 948.6 1.5 100
2019-04-07 12:00:00 10 14 Oeste 32 Noroeste 0 948.3 1.5 90
2019-04-07 11:00:00 9.6 12 Oeste 23 Sudoeste 0 947.6 1.4 88
2019-04-07 10:00:00 8.7 13 Oeste 28 Noroeste 0 947.1 1.1 91
2019-04-07 09:00:00 7.7 12 Oeste 23 Noroeste 0 946.8 1 94
2019-04-07 08:00:00 7 9 Noroeste 26 Oeste 0 946.2 0.5 100
2019-04-07 07:00:00 7 10 Noroeste 30 Oeste 0 946 0.2 96
2019-04-07 06:00:00 7 16 Noroeste 34 Noroeste 0.4 945.8 0 94
2019-04-07 05:00:00 6.7 10 Oeste 21 Oeste 0.4 945.7 0 100
2019-04-07 04:00:00 7.2 11 Noroeste 31 Noroeste 0 945.8 0.1 93
2019-04-07 03:00:00 7 12 Oeste 29 Oeste 0 945.8 0.5 92
2019-04-07 02:00:00 7.4 14 Noroeste 29 Noroeste 0 945.7 0.7 91
2019-04-07 01:00:00 7.4 14 Noroeste 30 Noroeste 0 945.7 1.2 91
2019-04-07 00:00:00 7.6 13 Noroeste 32 Noroeste 0 945.3 1.4 86
2019-04-06 23:00:00 7.7 14 Noroeste 32 Noroeste 0 945 2 83
2019-04-06 22:00:00 7.6 16 Noroeste 35 Norte 0 944.5 2.2 81
2019-04-06 21:00:00 8.8 12 Noroeste 36 Oeste 0 943.9 2.1 69
2019-04-06 20:00:00 10.4 19 Noroeste 36 Noroeste 0 943 0.9 65
2019-04-06 19:00:00 9.9 16 Noroeste 41 Norte 1.2 942.3 0.2 82
2019-04-06 18:00:00 10.4 13 Noroeste 35 Noroeste 0 941.8 -0.3 75
2019-04-06 17:00:00 8.7 12 Noroeste 36 Norte 1.4 942.1 -0.2 90
2019-04-06 16:00:00 11.3 19 Oeste 47 Noroeste 0 942.1 -0.8 63
2019-04-06 15:00:00 10 15 Noroeste 33 Oeste 0 942.1 -0.3 73
2019-04-06 14:00:00 9.5 12 Oeste 36 Noroeste 0.6 942.3 -0.2 95
2019-04-06 13:00:00 6 12 Noroeste 35 Noroeste 2 942.9 1 96
2019-04-06 12:00:00 9.1 13 Noroeste 30 Oeste 0 942.4 0.7 76
2019-04-06 11:00:00 7 12 Oeste 26 Oeste 0.2 942.5 1 99
2019-04-06 10:00:00 7.1 9 Oeste 19 Oeste 0 941.9 0.6 93
2019-04-06 09:00:00 5.6 8 Oeste 15 Oeste 0 941.7 0.7 100
2019-04-06 08:00:00 5.6 8 Oeste 31 Norte 0.6 941.5 0.6 100
2019-04-06 07:00:00 6.1 11 Oeste 30 Noroeste 0.2 941.3 0.1 97
2019-04-06 06:00:00 6.1 15 Noroeste 33 Noroeste 0.2 941 -0.1 92
2019-04-06 05:00:00 6.3 17 Noroeste 34 Oeste 0 940.9 -0.4 95
2019-04-06 04:00:00 6.1 10 Oeste 31 Noroeste 0 941.2 -0.1 97
2019-04-06 03:00:00 6.3 16 Noroeste 34 Noroeste 0 941.1 0.1 95
2019-04-06 02:00:00 6.4 15 Noroeste 30 Noroeste 0 941.3 0.5 94
2019-04-06 01:00:00 5.9 15 Noroeste 29 Noroeste 0 941.3 1.4 95
2019-04-06 00:00:00 6.3 14 Noroeste 30 Noroeste 0.2 941 2.1 97
2019-04-05 23:00:00 6.1 11 Noroeste 31 Noroeste 0 940.8 2.2 95
2019-04-05 22:00:00 6 17 Noroeste 39 Noroeste 0 939.9 2.4 93
2019-04-05 21:00:00 5.6 14 Noroeste 43 Noroeste 0 938.9 1.3 90
2019-04-05 20:00:00 6.8 23 Noroeste 46 Noroeste 0.2 938.6 1.3 77
2019-04-05 19:00:00 7.7 12 Noroeste 50 Noroeste 0.8 937.5 0.4 91
2019-04-05 18:00:00 8 14 Noroeste 32 Noroeste 0.2 937.6 0.3 76
2019-04-05 17:00:00 9.2 22 Oeste 46 Oeste 0 937.3 0.2 71
2019-04-05 16:00:00 11.7 19 Oeste 46 Oeste 0.2 937.1 -0.1 52
2019-04-05 15:00:00 10.1 19 Noroeste 41 Oeste 0 937.3 0.1 53
2019-04-05 14:00:00 8.4 20 Noroeste 38 Noroeste 0 937.1 1.5 64
2019-04-05 13:00:00 7.6 21 Noroeste 43 Norte 0 937.2 1.8 67
2019-04-05 12:00:00 7.2 22 Noroeste 46 Noroeste 0 937.2 2.4 78
2019-04-05 11:00:00 6.3 19 Norte 41 Norte 0 935.6 0.9 93
2019-04-05 10:00:00 6.5 19 Noroeste 39 Noroeste 0.4 935.4 0.7 96
2019-04-05 09:00:00 6.9 7 Oeste 16 Oeste 0 934.8 -0.1 100
2019-04-05 08:00:00 6.8 7 Oeste 21 Noroeste 0.2 934.7 -1.1 100
2019-04-05 07:00:00 6.9 9 Noroeste 30 Sudoeste 0.6 934.7 -1.8 100
2019-04-05 06:00:00 7.3 14 Sudoeste 24 Sudoeste 0.2 934.9 -2.7 100
2019-04-05 05:00:00 7.1 8 Sudoeste 21 Sudoeste 4 935.8 -2.3 100
2019-04-05 04:00:00 6.6 8 Sudoeste 19 Sur 1.6 936.5 -2 100
2019-04-05 03:00:00 6.5 4 Sudoeste 18 Sudoeste 0 937.6 -0.7 100
2019-04-05 02:00:00 6.1 5 Oeste 26 Oeste 0.4 938.1 -0.1 95
2019-04-05 01:00:00 6.9 15 Noroeste 31 Noroeste 0 938.5 0.8 63
2019-04-05 00:00:00 7.8 13 Noroeste 35 Noroeste 0 938.3 0.9 70
2019-04-04 23:00:00 8.2 14 Noroeste 28 Noroeste 0 938.2 0.7 69
2019-04-04 22:00:00 9.4 16 Noroeste 28 Noroeste 0 937.7 0.1 57
2019-04-04 21:00:00 10.6 7 Noroeste 26 Noroeste 0 937.4 -0.3 40
2019-04-04 20:00:00 13.7 11 Oeste 29 Noroeste 0 937.5 -0.3 32
2019-04-04 19:00:00 14.4 15 Noroeste 32 Noroeste 0 937.6 -0.6 29
2019-04-04 18:00:00 15.7 15 Noroeste 29 Noroeste 0 937.7 -1.3 28
2019-04-04 17:00:00 16.6 8 Noroeste 27 Norte 0 937.8 -1.7 28
2019-04-04 16:00:00 15.7 13 Noroeste 26 Noroeste 0 938.2 -1.7 25
2019-04-04 15:00:00 15 15 Norte 30 Noroeste 0 939 -1 29
2019-04-04 14:00:00 13.9 8 Norte 24 Norte 0 939.5 0 26
2019-04-04 13:00:00 13.2 6 Nordeste 25 Norte 0 939.9 0.8 31
2019-04-04 12:00:00 11.7 4 Nordeste 23 Norte 0 940 1.4 35
2019-04-04 11:00:00 10 6 Este 18 Norte 0 939.5 1.3 39
2019-04-04 10:00:00 8.1 9 Sur 30 Este 0 939.1 1.1 46
2019-04-04 09:00:00 5.2 17 Nordeste 35 Nordeste 0 938.6 0.5 56
2019-04-04 08:00:00 4.8 12 Nordeste 37 Nordeste 0 938.2 0.1 59
2019-04-04 07:00:00 4.9 17 Nordeste 35 Nordeste 0 938 0.4 62
2019-04-04 06:00:00 5.2 18 Norte 34 Norte 0 938.1 -0.3 69
2019-04-04 05:00:00 6 23 Nordeste 54 Nordeste 0 938.1 -0.5 65
2019-04-04 04:00:00 6.8 33 Nordeste 54 Norte 0 937.6 -1.3 64
2019-04-04 03:00:00 6.8 35 Nordeste 58 Norte 0 938.4 -0.7 69
2019-04-04 02:00:00 7 38 Norte 66 Norte 0 938.6 -0.5 70
2019-04-04 01:00:00 7.9 39 Norte 58 Nordeste 0 938.9 -0.4 66
2019-04-04 00:00:00 8.8 36 Norte 67 Nordeste 0 939.1 -0.3 61
2019-04-03 23:00:00 9.9 32 Norte 58 Noroeste 0 939.1 -0.6 56
2019-04-03 22:00:00 11.1 34 Norte 56 Norte 0 939.3 -0.6 51
2019-04-03 21:00:00 11.9 6 Oeste 26 Noroeste 0 939.4 -1 51
2019-04-03 20:00:00 13.8 13 Norte 35 Noroeste 0 939.7 -1.1 48
2019-04-03 19:00:00 14.7 16 Noroeste 39 Norte 0 939.9 -1.6 48
2019-04-03 18:00:00 15.6 19 Norte 36 Noroeste 0 940.4 -1.8 47
2019-04-03 17:00:00 15.9 14 Norte 37 Norte 0 940.8 -2 47
2019-04-03 16:00:00 15.8 19 Noroeste 29 Noroeste 0 941.5 -1.8 47
2019-04-03 15:00:00 16.1 15 Noroeste 29 Oeste 0 942.2 -1.5 44
2019-04-03 14:00:00 17 11 Oeste 28 Noroeste 0 942.8 -0.6 35
2019-04-03 13:00:00 15.4 12 Oeste 27 Noroeste 0 943.3 -0.3 48
2019-04-03 12:00:00 13.5 12 Nordeste 25 Noroeste 0 943.7 -0.2 47
2019-04-03 11:00:00 13.1 13 Norte 38 Nordeste 0 943.4 -0.9 49
2019-04-03 10:00:00 11.9 19 Norte 36 Norte 0 943.6 -1.2 51
2019-04-03 09:00:00 10.7 16 Norte 28 Norte 0 943.9 -1.4 49
2019-04-03 08:00:00 10.5 19 Norte 30 Norte 0 944.3 -1.6 51
2019-04-03 07:00:00 10.2 14 Norte 23 Norte 0 944.8 -1.7 47
2019-04-03 06:00:00 11.4 14 Norte 24 Norte 0 945.3 -1.7 70
2019-04-03 05:00:00 12 17 Norte 26 Norte 0 945.9 -1.7 68
2019-04-03 04:00:00 11.9 13 Norte 36 Nordeste 0 946.5 -1.5 75
2019-04-03 03:00:00 12.2 26 Norte 38 Norte 0 947 -1.4 76
2019-04-03 02:00:00 12.4 27 Norte 37 Nordeste 0 947.6 -0.8 74
2019-04-03 01:00:00 13 13 Norte 32 Norte 0 948 0 68
2019-04-03 00:00:00 13 15 Norte 27 Norte 0 948.4 0.4 69
2019-04-02 23:00:00 13.4 17 Norte 24 Norte 0 948.4 0.5 58
2019-04-02 22:00:00 13.7 16 Norte 26 Norte 0 948 0.1 60
2019-04-02 21:00:00 14.8 13 Noroeste 18 Norte 0 948 0 58
2019-04-02 20:00:00 16.6 6 Noroeste 14 Noroeste 0 947.9 -0.6 54
2019-04-02 19:00:00 17.5 8 Oeste 18 Oeste 0 947.9 -1 48
2019-04-02 18:00:00 19.5 8 Sudoeste 15 Oeste 0 948 -1.4 45
2019-04-02 17:00:00 17.8 5 Noroeste 10 Sudoeste 0 948.5 -1.4 49
2019-04-02 16:00:00 17.8 6 Sur 21 Oeste 0 948.9 -1.4 49
2019-04-02 15:00:00 16.8 12 Nordeste 20 Norte 0 949.4 -1.1 57
2019-04-02 14:00:00 16.7 7 Sudeste 14 Sudeste 0 949.9 -0.5 57
2019-04-02 13:00:00 15.1 4 Sudoeste 13 Sudoeste 0 950.3 0.4 70
2019-04-02 12:00:00 15.1 8 Sudoeste 16 Sudoeste 0 950.5 0.8 72
2019-04-02 11:00:00 13.5 9 Sudoeste 15 Sudoeste 0 950.4 1 82
2019-04-02 10:00:00 10.7 0 Calma 5 Nordeste 0 949.9 0.8 94
2019-04-02 09:00:00 8.1 4 Nordeste 7 Nordeste 0 949.7 0.6 100
2019-04-02 08:00:00 8.1 3 Nordeste 12 Nordeste 0 949.4 -0.1 100
2019-04-02 07:00:00 9.1 10 Norte 20 Nordeste 0 949.1 -0.3 100
2019-04-02 06:00:00 8 5 Norte 13 Nordeste 0 949.1 -0.4 100
2019-04-02 05:00:00 7.8 4 Noroeste 9 Sudoeste 0.2 949.5 -0.6 100
2019-04-02 04:00:00 7.5 5 Nordeste 9 Noroeste 0 949.4 -0.5 100
2019-04-02 03:00:00 7.6 4 Nordeste 12 Nordeste 0 949.5 0 100
2019-04-02 02:00:00 7.8 6 Nordeste 10 Nordeste 0 950.1 0.7 100
2019-04-02 01:00:00 8 3 Norte 10 Nordeste 0 949.9 1 100
2019-04-02 00:00:00 8.6 8 Nordeste 11 Nordeste 0 949.5 0.9 100
2019-04-01 23:00:00 9.6 5 Nordeste 9 Oeste 0 949.4 1.9 100
2019-04-01 22:00:00 10.4 6 Norte 17 Noroeste 1.6 948.9 1.8 100
2019-04-01 21:00:00 10.9 3 Noroeste 17 Noroeste 1.8 948.6 1.6 100
2019-04-01 20:00:00 11.3 2 Noroeste 9 Este 0 947.5 1 100
2019-04-01 19:00:00 11.3 8 Este 23 Sur 0.4 947.1 0.7 100
2019-04-01 18:00:00 10.6 10 Nordeste 22 Nordeste 20.2 947 0.5 100
2019-04-01 17:00:00 13.4 14 Sur 26 Oeste 0 946.5 -0.3 83
2019-04-01 16:00:00 13.6 12 Norte 23 Sudoeste 1 946.4 -0.8 86
2019-04-01 15:00:00 19.3 12 Sudoeste 24 Sur 0 946.5 -0.8 47
2019-04-01 14:00:00 18.3 11 Sudoeste 24 Sudoeste 0 946.8 0.1 50
2019-04-01 13:00:00 16.7 10 Sudoeste 21 Sudoeste 0 947.2 0.9 59
2019-04-01 12:00:00 15.3 9 Sudeste 18 Sudeste 0 947.3 1.4 67
2019-04-01 11:00:00 13.3 5 Sudeste 10 Este 0 946.7 1.3 79
2019-04-01 10:00:00 11.1 4 Sudeste 8 Sudeste 0 946.3 1.1 96
2019-04-01 09:00:00 10.4 0 Calma 9 Este 0 945.9 1 99
2019-04-01 08:00:00 10.3 4 Sudeste 9 Sudeste 0 945.4 0.3 100
2019-04-01 07:00:00 10.5 3 Sur 10 Sudeste 0 945.2 -0.1 98
2019-04-01 06:00:00 10.4 4 Sudeste 12 Sudeste 0 944.9 -0.6 100
2019-04-01 05:00:00 10.3 3 Sudeste 10 Sudeste 0 945.1 -0.1 95
2019-04-01 04:00:00 10.4 6 Sudeste 10 Sudeste 0 945.3 0 89
2019-04-01 03:00:00 9.8 2 Norte 8 Nordeste 0 945.5 0.1 88
2019-04-01 02:00:00 9.9 5 Nordeste 12 Nordeste 0 945.2 -0.1 86
2019-04-01 01:00:00 9.9 9 Nordeste 12 Nordeste 0 945.3 0.3 87
2019-04-01 00:00:00 11.3 5 Noroeste 27 Nordeste 0 945.4 1 77
2019-03-31 23:00:00 12.1 11 Norte 23 Norte 0 945.3 1.1 79
2019-03-31 22:00:00 12.4 11 Norte 19 Norte 0 945 1.1 78
2019-03-31 21:00:00 13.7 5 Oeste 10 Oeste 0 944.4 0.6 74
2019-03-31 20:00:00 14.7 5 Sudoeste 19 Sudoeste 0 944.2 0 73
2019-03-31 19:00:00 17.1 9 Sudoeste 18 Sudoeste 0 943.9 -0.6 54
2019-03-31 18:00:00 17.2 8 Sur 16 Sur 0 943.8 -1.3 54
2019-03-31 17:00:00 15.6 9 Sur 17 Sur 0 944.2 -1.4 74
2019-03-31 16:00:00 14.1 5 Sudoeste 15 Oeste 0 944.5 -1.2 95
2019-03-31 15:00:00 15.2 10 Oeste 19 Oeste 1 945.1 -1 85
2019-03-31 14:00:00 13.8 4 Oeste 12 Noroeste 1 945.6 -0.5 94
2019-03-31 13:00:00 15.7 2 Sudoeste 11 Nordeste 0 945.7 -0.1 66
2019-03-31 12:00:00 14.3 8 Nordeste 17 Nordeste 0 946.1 0.6 75
2019-03-31 11:00:00 12.2 9 Norte 15 Norte 0.2 946.1 1 92
2019-03-31 10:00:00 11.5 2 Sudeste 6 Este 0 945.8 0.5 93
2019-03-31 09:00:00 10.3 3 Oeste 9 Noroeste 0.2 945.5 -0.1 98
2019-03-31 08:00:00 10.1 4 Oeste 9 Noroeste 0 945.1 -1 98
2019-03-31 07:00:00 8.9 4 Oeste 7 Oeste 0 945.3 -1.4 98
2019-03-31 06:00:00 10.1 3 Nordeste 5 Nordeste 0 945.6 -1.9 94
2019-03-31 05:00:00 10.7 4 Norte 6 Noroeste 0 946.1 -1.6 90
2019-03-31 03:00:00 10.3 6 Este 8 Este 0 947.5 -1.3 86
2019-03-31 01:00:00 10.2 3 Oeste 10 Noroeste 0 947.7 -0.9 87
2019-03-31 00:00:00 11.8 5 Noroeste 18 Noroeste 0 948.1 0 77
2019-03-30 23:00:00 12.5 9 Noroeste 17 Noroeste 0 948.8 1.1 76
2019-03-30 22:00:00 12.1 6 Noroeste 12 Noroeste 0 948.6 1.5 82
2019-03-30 21:00:00 13.2 5 Oeste 28 Sudoeste 0 948.1 1.1 74
2019-03-30 20:00:00 15.4 12 Sudoeste 32 Oeste 0 947.7 0.7 61
2019-03-30 19:00:00 17.7 5 Sur 15 Sur 0 947.1 -0.2 45
2019-03-30 18:00:00 18.9 7 Sur 19 Sudeste 0 947 -0.9 41
2019-03-30 17:00:00 20.2 12 Sur 22 Sur 0 947 -1.8 38
2019-03-30 16:00:00 20.1 6 Sudeste 20 Sudeste 0 947.3 -2.3 39
2019-03-30 15:00:00 20.5 5 Este 20 Sudeste 0 947.9 -2.4 37
2019-03-30 14:00:00 19.7 10 Sur 26 Sur 0 948.8 -1.8 41
2019-03-30 13:00:00 19.3 10 Sur 23 Sur 0 949.6 -1.2 44
2019-03-30 12:00:00 17.8 7 Este 20 Sur 0 950.3 -0.4 49
2019-03-30 11:00:00 15.9 10 Sudeste 21 Sudeste 0 950.6 -0.2 55
2019-03-30 10:00:00 13.8 10 Sudeste 25 Sudeste 0 950.8 0.2 63
2019-03-30 09:00:00 11.4 10 Sudeste 18 Este 0 950.7 0.1 73
2019-03-30 08:00:00 8.9 8 Nordeste 18 Nordeste 0 950.8 -0.3 83
2019-03-30 07:00:00 8.5 11 Este 17 Sudeste 0 950.6 -0.9 84
2019-03-30 06:00:00 8 7 Este 15 Este 0 950.6 -1.2 85
2019-03-30 05:00:00 7.1 5 Nordeste 10 Oeste 0 951.1 -1.1 89
2019-03-30 04:00:00 7.8 6 Noroeste 16 Este 0 951.5 -0.9 89
2019-03-30 03:00:00 8.5 8 Nordeste 12 Este 0 951.8 -1 94
2019-03-30 02:00:00 9.3 3 Norte 11 Este 0 952.2 -0.8 89
2019-03-30 01:00:00 10.7 6 Nordeste 24 Este 0.2 952.4 -0.6 83
2019-03-30 00:00:00 11.5 3 Este 8 Nordeste 0 952.8 0.2 78
2019-03-29 23:00:00 10.7 5 Noroeste 8 Nordeste 0 953 0.9 75
2019-03-29 22:00:00 12 5 Nordeste 13 Oeste 0 953 1.1 66
2019-03-29 21:00:00 14.3 7 Sudoeste 13 Sur 0 952.6 0.7 55
2019-03-29 20:00:00 16.3 4 Este 16 Sur 0 952.1 0.1 40
2019-03-29 19:00:00 18.1 9 Sur 18 Sur 0 951.9 -0.3 34
2019-03-29 18:00:00 19.8 9 Sur 20 Sur 0 951.9 -1 31
2019-03-29 17:00:00 19.7 12 Sur 24 Sur 0 952 -1.5 29
2019-03-29 16:00:00 20.7 8 Sudoeste 21 Sur 0 952.2 -1.6 27
2019-03-29 15:00:00 20.5 12 Sudoeste 23 Sur 0 952.9 -1.4 26
2019-03-29 14:00:00 19.6 9 Sur 20 Sur 0 953.5 -1.1 29
2019-03-29 13:00:00 17.9 8 Sudeste 22 Sur 0 953.8 -0.7 32
2019-03-29 12:00:00 16.8 9 Sudeste 22 Sur 0 954.3 0 34
2019-03-29 11:00:00 15.3 9 Sudeste 27 Sudeste 0 954.6 0.5 39
2019-03-29 10:00:00 12.8 15 Sudeste 26 Sudeste 0 954.5 0.6 43
2019-03-29 09:00:00 10.9 12 Sudeste 23 Este 0 954.3 0.4 49
2019-03-29 08:00:00 8.2 12 Este 26 Este 0 954.1 0 56
2019-03-29 07:00:00 8.4 11 Este 32 Este 0 953.9 -0.4 53
2019-03-29 06:00:00 9 16 Este 33 Este 0 953.9 -0.5 49
2019-03-29 05:00:00 9.5 18 Este 34 Este 0 954.1 -0.4 48
2019-03-29 04:00:00 9.4 17 Este 38 Este 0 954.3 -0.2 49
2019-03-29 03:00:00 9.2 12 Este 36 Este 0 954.4 -0.4 54
2019-03-29 02:00:00 10 14 Este 29 Este 0 954.5 -0.5 45
2019-03-29 01:00:00 10.1 10 Este 20 Este 0 954.5 -0.8 38
2019-03-29 00:00:00 9.7 8 Este 15 Este 0 954.8 -0.2 37
2019-03-28 23:00:00 9.9 8 Este 14 Este 0 955 0.5 37
2019-03-28 22:00:00 10.1 9 Este 16 Este 0 955.3 1 39
2019-03-28 21:00:00 11.2 7 Este 12 Este 0 955 1.1 38
2019-03-28 20:00:00 13.2 8 Este 23 Sudeste 0 954.5 0.5 36
2019-03-28 19:00:00 16.1 12 Sur 33 Sur 0 954.3 -0.1 27
2019-03-28 18:00:00 17.3 17 Sur 36 Sudeste 0 953.9 -1 27
2019-03-28 17:00:00 18.2 14 Sudeste 33 Sur 0 954 -1.5 29
2019-03-28 16:00:00 18.2 13 Sudeste 34 Sudeste 0 954.4 -1.7 30
2019-03-28 15:00:00 18 16 Sudeste 41 Sudeste 0 954.9 -1.6 30
2019-03-28 14:00:00 17.1 18 Sudeste 35 Sudeste 0 955.5 -1.3 33
2019-03-28 13:00:00 16.4 18 Sudeste 35 Sudeste 0 956.1 -0.6 29
2019-03-28 12:00:00 15.5 14 Sudeste 35 Este 0 956.5 -0.1 40
2019-03-28 11:00:00 14.2 16 Sudeste 36 Sudeste 0 956.8 0.7 50
2019-03-28 10:00:00 11.7 22 Sudeste 37 Sudeste 0 956.7 1.1 61
2019-03-28 09:00:00 10.6 14 Sudeste 30 Este 0 956.6 1.5 71
2019-03-28 08:00:00 8.6 14 Este 31 Este 0 956.1 1.1 78
2019-03-28 07:00:00 9.3 -- -- -- -- 0 955.6 0.3 67
2019-03-28 06:00:00 9.2 11 Este 21 Este 0 955.1 -0.6 64
2019-03-28 05:00:00 8.6 8 Este 17 Este 0 955 -1 64
2019-03-28 04:00:00 8.6 8 Este 13 Este 0 955.3 -1 62
2019-03-28 03:00:00 7.4 9 Este 13 Este 0 955.7 -0.4 66
2019-03-28 02:00:00 7.1 9 Nordeste 11 Nordeste 0 956 0.3 71
2019-03-28 01:00:00 7.6 5 Este 8 Este 0 956.3 1 70
2019-03-28 00:00:00 8 2 Oeste 5 Noroeste 0 956.1 1.8 70
2019-03-27 23:00:00 9.5 3 Norte 9 Noroeste 0 955.7 2.1 63
2019-03-27 22:00:00 11.1 4 Noroeste 14 Noroeste 0 955.3 2.5 50
2019-03-27 21:00:00 12 6 Nordeste 10 Nordeste 0 954.3 2.1 35
2019-03-27 20:00:00 14.4 6 Este 17 Sur 0 953.6 1.4 32
2019-03-27 19:00:00 17.6 10 Sur 18 Sur 0 952.8 0.4 25
2019-03-27 18:00:00 19.3 6 Sur 24 Sur 0 952.2 -0.3 23
2019-03-27 17:00:00 20.3 14 Sudeste 27 Sudeste 0 952.2 -0.8 18
2019-03-27 16:00:00 20.3 9 Sudeste 27 Sudeste 0 952.4 -0.9 21
2019-03-27 15:00:00 19.2 12 Nordeste 33 Sudeste 0 952.5 -0.9 24
2019-03-27 14:00:00 19.2 13 Sudeste 33 Sudeste 0 953 -0.3 21
2019-03-27 13:00:00 18.5 12 Sudeste 26 Sur 0 953.3 0.5 32
2019-03-27 12:00:00 16.8 13 Sudeste 28 Sudeste 0 953.4 1 44
2019-03-27 11:00:00 15.2 13 Sudeste 38 Sudeste 0 953.3 1.4 55
2019-03-27 10:00:00 13.6 14 Sudeste 31 Sur 0 952.8 1.9 60
2019-03-27 09:00:00 11.7 12 Sudeste 29 Sudeste 0 952.4 1.6 60
2019-03-27 08:00:00 10.4 12 Este 26 Sudeste 0 951.9 1.6 62
2019-03-27 07:00:00 10.1 11 Este 21 Este 0 950.9 1.1 69
2019-03-27 06:00:00 9.7 7 Este 18 Este 0 950.8 1.1 78
2019-03-27 05:00:00 10.6 12 Este 26 Este 0 950.3 0.6 75
2019-03-27 04:00:00 11.3 13 Este 24 Este 0 949.8 0.2 72
2019-03-27 03:00:00 9.5 6 Nordeste 14 Nordeste 0 949.7 0.5 75
2019-03-27 02:00:00 10.1 4 Norte 10 Este 0 949.7 1.2 74
2019-03-27 01:00:00 10.8 5 Nordeste 9 Nordeste 0 949.6 1.8 73
2019-03-27 00:00:00 11.6 0 Calma 6 Oeste 0 949.2 1.9 71